createdAt,value
2019-05-26T00:01:39.656Z,99.90
2019-05-26T00:04:09.339Z,99.90
2019-05-26T00:06:39.547Z,99.90
2019-05-26T00:09:08.943Z,99.90
2019-05-26T00:11:39.660Z,99.90
2019-05-26T00:14:09.433Z,99.90
2019-05-26T00:16:39.696Z,99.90
2019-05-26T00:19:09.382Z,99.90
2019-05-26T00:21:39.783Z,99.90
2019-05-26T00:24:09.378Z,99.90
2019-05-26T00:26:39.640Z,99.90
2019-05-26T00:29:09.392Z,99.90
2019-05-26T00:31:39.662Z,99.90
2019-05-26T00:34:09.436Z,99.90
2019-05-26T00:36:39.704Z,99.90
2019-05-26T00:39:09.426Z,99.90
2019-05-26T00:41:39.732Z,99.90
2019-05-26T00:44:09.400Z,99.90
2019-05-26T00:46:39.641Z,99.90
2019-05-26T00:49:09.374Z,99.90
2019-05-26T00:51:39.759Z,99.90
2019-05-26T00:54:09.455Z,99.90
2019-05-26T00:56:39.550Z,99.90
2019-05-26T00:59:09.018Z,99.90
2019-05-26T01:01:39.735Z,99.90
2019-05-26T01:04:09.572Z,99.90
2019-05-26T01:06:39.796Z,99.90
2019-05-26T01:09:09.454Z,99.90
2019-05-26T01:11:39.727Z,99.90
2019-05-26T01:14:09.213Z,99.90
2019-05-26T01:16:39.814Z,99.90
2019-05-26T01:19:09.513Z,99.90
2019-05-26T01:21:39.723Z,99.90
2019-05-26T01:24:09.367Z,99.90
2019-05-26T01:26:39.717Z,99.90
2019-05-26T01:29:09.159Z,99.90
2019-05-26T01:31:39.771Z,99.90
2019-05-26T01:34:09.573Z,99.90
2019-05-26T01:36:40.717Z,99.90
2019-05-26T01:39:10.116Z,99.90
2019-05-26T01:41:39.803Z,99.90
2019-05-26T01:44:09.436Z,99.90
2019-05-26T01:46:39.703Z,99.90
2019-05-26T01:49:09.385Z,99.90
2019-05-26T01:51:39.823Z,99.90
2019-05-26T01:54:09.606Z,99.90
2019-05-26T01:56:39.810Z,99.90
2019-05-26T01:59:09.509Z,99.90
2019-05-26T02:01:39.851Z,99.90
2019-05-26T02:04:09.374Z,99.90
2019-05-26T02:06:39.716Z,99.90
2019-05-26T02:09:09.155Z,99.90
2019-05-26T02:11:39.764Z,99.90
2019-05-26T02:14:09.451Z,99.90
2019-05-26T02:16:39.787Z,99.90
2019-05-26T02:19:09.495Z,99.90
2019-05-26T02:21:39.740Z,99.90
2019-05-26T02:24:09.415Z,99.90
2019-05-26T02:26:39.821Z,99.90
2019-05-26T02:29:09.503Z,99.90
2019-05-26T02:31:39.804Z,99.90
2019-05-26T02:34:09.524Z,99.90
2019-05-26T02:36:39.770Z,99.90
2019-05-26T02:39:09.577Z,99.90
2019-05-26T02:41:39.873Z,99.90
2019-05-26T02:44:09.603Z,99.90
2019-05-26T02:46:39.885Z,99.90
2019-05-26T02:49:09.532Z,99.90
2019-05-26T02:51:39.806Z,99.90
2019-05-26T02:54:09.513Z,99.90
2019-05-26T02:56:40.057Z,99.90
2019-05-26T02:59:09.594Z,99.90
2019-05-26T03:01:58.365Z,99.90
2019-05-26T03:04:11.027Z,99.90
2019-05-26T03:06:40.851Z,99.90
2019-05-26T03:09:22.503Z,99.90
2019-05-26T03:11:42.197Z,99.90
2019-05-26T03:14:12.674Z,99.90
2019-05-26T03:16:42.209Z,99.90
2019-05-26T03:19:11.709Z,99.90
2019-05-26T03:21:41.175Z,99.90
2019-05-26T03:24:10.597Z,99.90
2019-05-26T03:26:40.099Z,99.90
2019-05-26T03:29:09.653Z,99.90
2019-05-26T03:31:39.896Z,99.90
2019-05-26T03:34:09.613Z,99.90
2019-05-26T03:36:39.874Z,99.90
2019-05-26T03:39:09.579Z,99.90
2019-05-26T03:41:39.853Z,99.90
2019-05-26T03:44:09.617Z,99.90
2019-05-26T03:46:39.972Z,99.90
2019-05-26T03:49:09.704Z,99.90
2019-05-26T03:51:39.980Z,99.90
2019-05-26T03:54:09.632Z,99.90
2019-05-26T03:56:39.908Z,99.90
2019-05-26T03:59:09.661Z,99.90
2019-05-26T04:01:40.056Z,99.90
2019-05-26T04:04:09.683Z,99.90
2019-05-26T04:06:39.989Z,99.90
2019-05-26T04:09:09.733Z,99.90
2019-05-26T04:11:39.880Z,99.90
2019-05-26T04:14:09.685Z,99.90
2019-05-26T04:16:39.916Z,99.90
2019-05-26T04:19:09.725Z,99.90
2019-05-26T04:21:39.950Z,99.90
2019-05-26T04:24:09.741Z,99.90
2019-05-26T04:26:40.062Z,99.90
2019-05-26T04:29:10.781Z,99.90
2019-05-26T04:31:40.874Z,99.90
2019-05-26T04:34:10.714Z,99.90
2019-05-26T04:36:40.215Z,99.90
2019-05-26T04:39:09.844Z,99.90
2019-05-26T04:41:40.061Z,99.90
2019-05-26T04:44:09.899Z,99.90
2019-05-26T04:46:40.085Z,99.90
2019-05-26T04:49:09.816Z,99.90
2019-05-26T04:51:39.996Z,99.90
2019-05-26T04:54:09.773Z,99.90
2019-05-26T04:56:40.009Z,99.90
2019-05-26T04:59:09.750Z,99.90
2019-05-26T05:01:39.928Z,99.90
2019-05-26T05:04:09.724Z,99.90
2019-05-26T05:06:39.931Z,99.90
2019-05-26T05:09:09.400Z,99.90
2019-05-26T05:11:40.048Z,99.90
2019-05-26T05:14:09.746Z,99.90
2019-05-26T05:16:39.986Z,99.90
2019-05-26T05:19:09.730Z,99.90
2019-05-26T05:21:40.106Z,99.90
2019-05-26T05:24:09.810Z,99.90
2019-05-26T05:26:40.054Z,99.90
2019-05-26T05:29:09.798Z,99.90
2019-05-26T05:31:40.079Z,99.90
2019-05-26T05:34:09.846Z,99.90
2019-05-26T05:36:40.107Z,99.90
2019-05-26T05:39:09.755Z,99.90
2019-05-26T05:41:40.035Z,99.90
2019-05-26T05:44:09.793Z,99.90
2019-05-26T05:46:40.073Z,99.90
2019-05-26T05:49:09.883Z,99.90
2019-05-26T05:51:40.059Z,99.90
2019-05-26T05:54:10.835Z,99.90
2019-05-26T05:56:40.311Z,99.90
2019-05-26T05:59:09.922Z,99.90
2019-05-26T06:01:40.087Z,99.90
2019-05-26T06:04:09.509Z,99.90
2019-05-26T06:06:40.098Z,99.90
2019-05-26T06:09:09.902Z,99.90
2019-05-26T06:11:40.123Z,99.90
2019-05-26T06:14:09.916Z,99.90
2019-05-26T06:16:40.163Z,99.90
2019-05-26T06:19:10.042Z,99.90
2019-05-26T06:21:41.278Z,99.90
2019-05-26T06:24:10.880Z,99.90
2019-05-26T06:26:40.332Z,99.90
2019-05-26T06:29:09.960Z,99.90
2019-05-26T06:31:40.153Z,99.90
2019-05-26T06:34:10.982Z,99.90
2019-05-26T06:36:40.492Z,99.90
2019-05-26T06:39:10.040Z,99.90
2019-05-26T06:41:40.279Z,99.90
2019-05-26T06:44:09.900Z,99.90
2019-05-26T06:46:40.141Z,99.90
2019-05-26T06:49:09.944Z,99.90
2019-05-26T06:51:40.104Z,99.90
2019-05-26T06:54:09.581Z,99.90
2019-05-26T06:56:40.237Z,99.90
2019-05-26T06:59:09.701Z,99.90
2019-05-26T07:01:40.127Z,99.90
2019-05-26T07:04:09.903Z,99.90
2019-05-26T07:06:40.109Z,99.90
2019-05-26T07:09:09.638Z,99.90
2019-05-26T07:11:54.011Z,99.90
2019-05-26T07:14:13.048Z,99.90
2019-05-26T07:16:42.538Z,99.90
2019-05-26T07:19:12.148Z,99.90
2019-05-26T07:21:42.136Z,99.90
2019-05-26T07:24:11.635Z,99.90
2019-05-26T07:26:41.119Z,99.90
2019-05-26T07:29:10.631Z,99.90
2019-05-26T07:31:40.334Z,99.90
2019-05-26T07:34:10.053Z,99.90
2019-05-26T07:36:40.234Z,99.90
2019-05-26T07:39:09.860Z,99.90
2019-05-26T07:41:40.216Z,99.90
2019-05-26T07:44:09.978Z,99.90
2019-05-26T07:46:40.203Z,99.90
2019-05-26T07:49:09.632Z,99.90
2019-05-26T07:51:40.276Z,99.90
2019-05-26T07:54:24.572Z,99.90
2019-05-26T07:56:41.234Z,99.90
2019-05-26T07:59:10.610Z,99.90
2019-05-26T08:01:40.388Z,99.90
2019-05-26T08:04:10.017Z,99.90
2019-05-26T08:06:40.291Z,99.90
2019-05-26T08:09:10.193Z,99.90
2019-05-26T08:11:43.194Z,99.90
2019-05-26T08:14:13.559Z,99.90
2019-05-26T08:16:43.232Z,99.90
2019-05-26T08:19:12.692Z,99.90
2019-05-26T08:21:42.598Z,99.90
2019-05-26T08:24:14.108Z,99.90
2019-05-26T08:26:48.174Z,99.90
2019-05-26T08:29:17.775Z,99.90
2019-05-26T08:31:50.014Z,99.90
2019-05-26T08:34:19.509Z,99.90
2019-05-26T08:36:49.609Z,99.90
2019-05-26T08:39:19.157Z,99.90
2019-05-26T08:41:48.671Z,99.90
2019-05-26T08:44:18.136Z,99.90
2019-05-26T08:46:47.967Z,99.90
2019-05-26T08:49:17.392Z,99.90
2019-05-26T08:51:47.079Z,99.90
2019-05-26T08:54:16.643Z,99.90
2019-05-26T08:56:46.271Z,99.90
2019-05-26T08:59:16.104Z,99.90
2019-05-26T09:01:45.596Z,99.90
2019-05-26T09:04:15.167Z,99.90
2019-05-26T09:06:45.385Z,99.90
2019-05-26T09:09:15.073Z,99.90
2019-05-26T09:11:44.677Z,99.90
2019-05-26T09:14:14.124Z,99.90
2019-05-26T09:16:43.673Z,99.90
2019-05-26T09:19:13.224Z,99.90
2019-05-26T09:21:43.389Z,99.90
2019-05-26T09:24:13.183Z,99.90
2019-05-26T09:26:42.728Z,99.90
2019-05-26T09:29:12.264Z,99.90
2019-05-26T09:31:41.756Z,99.90
2019-05-26T09:34:11.301Z,99.90
2019-05-26T09:36:41.136Z,99.90
2019-05-26T09:39:10.683Z,99.90
2019-05-26T09:41:40.513Z,99.90
2019-05-26T09:44:10.088Z,99.90
2019-05-26T09:46:40.402Z,99.90
2019-05-26T09:49:10.101Z,99.90
2019-05-26T09:51:40.377Z,99.90
2019-05-26T09:54:12.601Z,99.90
2019-05-26T09:56:41.345Z,99.90
2019-05-26T09:59:10.787Z,99.90
2019-05-26T10:01:40.444Z,99.90
2019-05-26T10:04:10.189Z,99.90
2019-05-26T10:06:40.690Z,99.90
2019-05-26T10:09:10.459Z,99.90
2019-05-26T10:11:43.385Z,99.90
2019-05-26T10:14:13.071Z,99.90
2019-05-26T10:16:42.655Z,99.90
2019-05-26T10:19:12.219Z,99.90
2019-05-26T10:21:43.327Z,99.90
2019-05-26T10:24:12.782Z,99.90
2019-05-26T10:26:43.047Z,99.90
2019-05-26T10:29:12.651Z,99.90
2019-05-26T10:31:42.472Z,99.90
2019-05-26T10:34:13.797Z,99.90
2019-05-26T10:36:43.404Z,99.90
2019-05-26T10:39:13.103Z,99.90
2019-05-26T10:41:42.486Z,99.90
2019-05-26T10:44:12.172Z,99.90
2019-05-26T10:46:41.562Z,99.90
2019-05-26T10:49:11.127Z,99.90
2019-05-26T10:51:40.594Z,99.90
2019-05-26T10:54:10.220Z,99.90
2019-05-26T10:56:40.488Z,99.90
2019-05-26T10:59:10.222Z,99.90
2019-05-26T11:01:40.473Z,99.90
2019-05-26T11:04:10.582Z,99.90
2019-05-26T11:06:40.707Z,99.90
2019-05-26T11:09:10.250Z,99.90
2019-05-26T11:11:40.760Z,99.90
2019-05-26T11:14:10.396Z,99.90
2019-05-26T11:16:40.547Z,99.10
2019-05-26T11:19:10.265Z,96.40
2019-05-26T11:21:40.502Z,97.00
2019-05-26T11:24:10.287Z,97.90
2019-05-26T11:26:40.512Z,96.60
2019-05-26T11:29:10.241Z,96.90
2019-05-26T11:31:40.563Z,97.60
2019-05-26T11:34:10.342Z,98.10
2019-05-26T11:36:40.586Z,96.30
2019-05-26T11:39:10.301Z,95.40
2019-05-26T11:41:40.596Z,94.60
2019-05-26T11:44:17.998Z,94.80
2019-05-26T11:46:41.496Z,94.00
2019-05-26T11:49:14.268Z,93.80
2019-05-26T11:51:43.857Z,94.20
2019-05-26T11:54:13.424Z,99.10
2019-05-26T11:56:43.815Z,95.90
2019-05-26T11:59:13.431Z,95.90
2019-05-26T12:01:43.030Z,94.30
2019-05-26T12:04:12.586Z,93.70
2019-05-26T12:06:42.314Z,98.10
2019-05-26T12:09:11.797Z,98.20
2019-05-26T12:11:41.519Z,94.70
2019-05-26T12:14:11.407Z,93.90
2019-05-26T12:16:41.020Z,90.10
2019-05-26T12:19:10.631Z,87.40
2019-05-26T12:21:40.476Z,87.20
2019-05-26T12:24:09.940Z,87.00
2019-05-26T12:26:40.571Z,82.40
2019-05-26T12:29:13.443Z,87.40
2019-05-26T12:31:43.599Z,78.80
2019-05-26T12:34:13.508Z,73.10
2019-05-26T12:36:43.585Z,74.80
2019-05-26T12:39:13.364Z,72.70
2019-05-26T12:41:42.921Z,71.30
2019-05-26T12:44:12.363Z,71.10
2019-05-26T12:46:41.837Z,71.60
2019-05-26T12:49:11.543Z,69.50
2019-05-26T12:51:41.094Z,68.40
2019-05-26T12:54:10.592Z,69.20
2019-05-26T12:56:40.537Z,69.40
2019-05-26T12:59:10.615Z,71.70
2019-05-26T13:01:40.714Z,73.90
2019-05-26T13:04:10.492Z,71.60
2019-05-26T13:06:40.635Z,73.10
2019-05-26T13:09:11.526Z,71.20
2019-05-26T13:11:41.043Z,67.00
2019-05-26T13:14:10.725Z,65.40
2019-05-26T13:16:40.718Z,62.60
2019-05-26T13:19:10.434Z,63.10
2019-05-26T13:21:40.698Z,63.90
2019-05-26T13:24:10.672Z,62.50
2019-05-26T13:26:40.703Z,62.60
2019-05-26T13:29:10.438Z,64.30
2019-05-26T13:31:40.711Z,60.00
2019-05-26T13:34:10.485Z,61.00
2019-05-26T13:36:40.769Z,60.30
2019-05-26T13:39:10.447Z,59.60
2019-05-26T13:41:40.676Z,59.40
2019-05-26T13:44:10.499Z,56.80
2019-05-26T13:46:40.747Z,56.20
2019-05-26T13:49:10.543Z,54.50
2019-05-26T13:51:40.808Z,54.80
2019-05-26T13:54:10.518Z,54.80
2019-05-26T13:56:41.011Z,55.70
2019-05-26T13:59:10.573Z,56.40
2019-05-26T14:01:40.709Z,55.50
2019-05-26T14:04:10.487Z,56.10
2019-05-26T14:06:40.709Z,57.40
2019-05-26T14:09:10.492Z,58.10
2019-05-26T14:11:40.701Z,59.30
2019-05-26T14:14:10.565Z,58.50
2019-05-26T14:16:40.776Z,59.20
2019-05-26T14:19:10.189Z,58.90
2019-05-26T14:21:40.826Z,58.40
2019-05-26T14:24:10.639Z,58.90
2019-05-26T14:26:40.814Z,59.00
2019-05-26T14:29:10.468Z,58.40
2019-05-26T14:31:40.722Z,58.60
2019-05-26T14:34:10.487Z,58.30
2019-05-26T14:36:40.840Z,59.50
2019-05-26T14:39:10.474Z,60.10
2019-05-26T14:41:40.734Z,59.80
2019-05-26T14:44:10.555Z,59.90
2019-05-26T14:46:41.197Z,58.90
2019-05-26T14:49:10.727Z,57.00
2019-05-26T14:51:40.799Z,54.80
2019-05-26T14:54:10.239Z,56.50
2019-05-26T14:56:41.049Z,55.10
2019-05-26T14:59:10.834Z,53.60
2019-05-26T15:01:40.764Z,52.50
2019-05-26T15:04:10.507Z,51.40
2019-05-26T15:06:40.926Z,50.00
2019-05-26T15:09:24.227Z,50.70
2019-05-26T15:11:42.015Z,51.20
2019-05-26T15:14:11.866Z,51.90
2019-05-26T15:16:41.788Z,51.90
2019-05-26T15:19:11.797Z,52.60
2019-05-26T15:21:41.680Z,53.30
2019-05-26T15:24:11.672Z,54.20
2019-05-26T15:26:41.198Z,55.30
2019-05-26T15:29:10.852Z,55.50
2019-05-26T15:31:40.778Z,56.80
2019-05-26T15:34:10.567Z,56.50
2019-05-26T15:36:41.142Z,57.30
2019-05-26T15:39:12.180Z,56.70
2019-05-26T15:41:41.951Z,55.30
2019-05-26T15:44:11.882Z,57.40
2019-05-26T15:46:41.599Z,57.30
2019-05-26T15:49:11.027Z,57.00
2019-05-26T15:51:40.906Z,56.50
2019-05-26T15:54:10.673Z,56.30
2019-05-26T15:56:40.891Z,56.80
2019-05-26T15:59:10.716Z,58.10
2019-05-26T16:01:40.901Z,57.40
2019-05-26T16:04:10.541Z,58.00
2019-05-26T16:06:40.878Z,58.90
2019-05-26T16:09:10.237Z,58.30
2019-05-26T16:11:43.462Z,59.00
2019-05-26T16:14:12.046Z,59.20
2019-05-26T16:16:42.099Z,59.40
2019-05-26T16:19:11.820Z,61.00
2019-05-26T16:21:41.299Z,60.40
2019-05-26T16:24:10.778Z,59.40
2019-05-26T16:26:40.940Z,59.30
2019-05-26T16:29:10.319Z,60.20
2019-05-26T16:31:40.999Z,65.00
2019-05-26T16:34:10.967Z,62.80
2019-05-26T16:36:41.060Z,65.30
2019-05-26T16:39:10.653Z,60.50
2019-05-26T16:41:40.985Z,60.70
2019-05-26T16:44:10.607Z,60.80
2019-05-26T16:46:53.673Z,59.90
2019-05-26T16:49:12.028Z,62.10
2019-05-26T16:51:42.042Z,63.40
2019-05-26T16:54:11.690Z,65.80
2019-05-26T16:56:41.167Z,65.00
2019-05-26T16:59:10.674Z,65.40
2019-05-26T17:01:40.935Z,65.30
2019-05-26T17:04:10.347Z,66.20
2019-05-26T17:06:40.937Z,67.50
2019-05-26T17:09:10.704Z,67.40
2019-05-26T17:11:41.061Z,66.20
2019-05-26T17:14:10.431Z,66.90
2019-05-26T17:16:42.846Z,67.80
2019-05-26T17:19:12.705Z,69.40
2019-05-26T17:21:42.081Z,71.00
2019-05-26T17:24:11.751Z,70.50
2019-05-26T17:26:41.192Z,71.50
2019-05-26T17:29:10.747Z,71.80
2019-05-26T17:31:40.993Z,72.10
2019-05-26T17:34:10.714Z,72.70
2019-05-26T17:36:40.980Z,73.20
2019-05-26T17:39:10.708Z,73.50
2019-05-26T17:41:41.047Z,74.00
2019-05-26T17:44:10.749Z,75.10
2019-05-26T17:46:41.006Z,76.20
2019-05-26T17:49:10.800Z,76.80
2019-05-26T17:51:41.071Z,77.60
2019-05-26T17:54:10.912Z,76.70
2019-05-26T17:56:41.060Z,73.80
2019-05-26T17:59:10.758Z,74.20
2019-05-26T18:01:41.069Z,75.80
2019-05-26T18:04:10.783Z,77.10
2019-05-26T18:06:41.062Z,77.70
2019-05-26T18:09:10.767Z,77.60
2019-05-26T18:11:41.051Z,79.00
2019-05-26T18:14:10.769Z,81.60
2019-05-26T18:16:41.059Z,81.70
2019-05-26T18:19:10.729Z,83.60
2019-05-26T18:21:41.183Z,85.80
2019-05-26T18:24:10.812Z,85.60
2019-05-26T18:26:41.210Z,87.40
2019-05-26T18:29:10.801Z,87.90
2019-05-26T18:31:41.095Z,89.20
2019-05-26T18:34:10.951Z,90.30
2019-05-26T18:36:41.147Z,91.50
2019-05-26T18:39:10.864Z,92.70
2019-05-26T18:41:41.126Z,92.60
2019-05-26T18:44:10.501Z,93.60
2019-05-26T18:46:41.104Z,94.00
2019-05-26T18:49:10.884Z,94.40
2019-05-26T18:51:41.146Z,95.80
2019-05-26T18:54:10.874Z,94.80
2019-05-26T18:56:41.134Z,94.70
2019-05-26T18:59:10.505Z,94.90
2019-05-26T19:01:41.171Z,95.60
2019-05-26T19:04:10.946Z,97.50
2019-05-26T19:06:41.239Z,99.90
2019-05-26T19:09:10.970Z,99.90
2019-05-26T19:11:41.135Z,99.90
2019-05-26T19:14:10.932Z,99.90
2019-05-26T19:16:41.137Z,99.90
2019-05-26T19:19:10.917Z,99.90
2019-05-26T19:21:41.163Z,99.90
2019-05-26T19:24:10.529Z,99.90
2019-05-26T19:26:41.190Z,99.90
2019-05-26T19:29:10.893Z,99.90
2019-05-26T19:31:41.131Z,99.90
2019-05-26T19:34:10.890Z,99.90
2019-05-26T19:36:41.148Z,99.90
2019-05-26T19:39:10.922Z,99.90
2019-05-26T19:41:41.217Z,99.90
2019-05-26T19:44:10.877Z,99.90
2019-05-26T19:46:41.231Z,99.90
2019-05-26T19:49:10.915Z,99.90
2019-05-26T19:51:41.199Z,99.90
2019-05-26T19:54:10.874Z,99.90
2019-05-26T19:56:41.242Z,99.90
2019-05-26T19:59:10.647Z,99.90
2019-05-26T20:01:41.627Z,99.90
2019-05-26T20:04:11.149Z,99.90
2019-05-26T20:06:43.830Z,99.90
2019-05-26T20:09:12.565Z,99.90
2019-05-26T20:11:42.701Z,99.90
2019-05-26T20:14:12.125Z,99.90
2019-05-26T20:16:41.587Z,99.90
2019-05-26T20:19:11.086Z,99.90
2019-05-26T20:21:41.282Z,99.90
2019-05-26T20:24:11.032Z,99.90
2019-05-26T20:26:41.270Z,99.90
2019-05-26T20:29:10.626Z,99.90
2019-05-26T20:31:41.236Z,99.90
2019-05-26T20:34:10.983Z,99.90
2019-05-26T20:36:41.212Z,99.90
2019-05-26T20:39:10.571Z,99.90
2019-05-26T20:41:41.285Z,99.90
2019-05-26T20:44:11.000Z,99.90
2019-05-26T20:46:41.274Z,99.90
2019-05-26T20:49:10.955Z,99.90
2019-05-26T20:51:41.586Z,99.90
2019-05-26T20:54:11.072Z,99.90
2019-05-26T20:56:41.308Z,99.90
2019-05-26T20:59:11.035Z,99.90
2019-05-26T21:01:41.309Z,99.90
2019-05-26T21:04:10.985Z,99.90
2019-05-26T21:06:41.392Z,99.90
2019-05-26T21:09:11.644Z,99.90
2019-05-26T21:11:41.414Z,99.90
2019-05-26T21:14:11.123Z,99.90
2019-05-26T21:16:41.425Z,99.90
2019-05-26T21:19:11.122Z,99.90
2019-05-26T21:21:41.439Z,99.90
2019-05-26T21:24:11.084Z,99.90
2019-05-26T21:26:41.406Z,99.90
2019-05-26T21:29:12.203Z,99.90
2019-05-26T21:31:42.116Z,99.90
2019-05-26T21:34:11.553Z,99.90
2019-05-26T21:36:41.517Z,99.90
2019-05-26T21:39:11.146Z,99.90
2019-05-26T21:41:41.547Z,99.90
2019-05-26T21:44:11.209Z,99.90
2019-05-26T21:46:41.538Z,99.90
2019-05-26T21:49:11.265Z,99.90
2019-05-26T21:51:41.447Z,99.90
2019-05-26T21:54:11.120Z,99.90
2019-05-26T21:56:41.470Z,99.90
2019-05-26T21:59:10.849Z,99.90
2019-05-26T22:01:43.090Z,99.90
2019-05-26T22:04:13.780Z,99.90
2019-05-26T22:06:46.291Z,99.90
2019-05-26T22:09:15.781Z,99.90
2019-05-26T22:11:45.427Z,99.90
2019-05-26T22:14:15.202Z,99.90
2019-05-26T22:16:44.903Z,99.90
2019-05-26T22:19:15.283Z,99.90
2019-05-26T22:21:47.154Z,99.90
2019-05-26T22:24:16.887Z,99.90
2019-05-26T22:26:48.197Z,99.90
2019-05-26T22:29:20.917Z,99.90
2019-05-26T22:31:50.420Z,99.90
2019-05-26T22:34:20.100Z,99.90
2019-05-26T22:36:49.491Z,99.90
2019-05-26T22:39:19.206Z,99.90
2019-05-26T22:41:48.700Z,99.90
2019-05-26T22:44:18.359Z,99.90
2019-05-26T22:46:48.534Z,99.90
2019-05-26T22:49:18.229Z,99.90
2019-05-26T22:51:47.697Z,99.90
2019-05-26T22:54:17.231Z,99.90
2019-05-26T22:56:46.744Z,99.90
2019-05-26T22:59:16.301Z,99.90
2019-05-26T23:01:45.844Z,99.90
2019-05-26T23:04:15.410Z,99.90
2019-05-26T23:06:44.967Z,99.90
2019-05-26T23:09:14.536Z,99.90
2019-05-26T23:11:44.355Z,99.90
2019-05-26T23:14:14.330Z,99.90
2019-05-26T23:16:43.768Z,99.90
2019-05-26T23:19:19.382Z,99.90
2019-05-26T23:21:44.593Z,99.90
2019-05-26T23:24:14.176Z,99.90
2019-05-26T23:26:43.867Z,99.90
2019-05-26T23:29:13.331Z,99.90
2019-05-26T23:31:42.788Z,99.90
2019-05-26T23:34:12.321Z,99.90
2019-05-26T23:36:42.093Z,99.90
2019-05-26T23:39:11.671Z,99.90
2019-05-26T23:41:41.626Z,99.90
2019-05-26T23:44:11.303Z,99.90
2019-05-26T23:46:41.654Z,99.90
2019-05-26T23:49:11.321Z,99.90
2019-05-26T23:51:41.539Z,99.90
2019-05-26T23:54:11.001Z,99.90
2019-05-26T23:56:41.586Z,99.90
2019-05-26T23:59:11.280Z,99.90
